Time;durP1;ratioP1;P1;durP2;ratioP2;P2;SDS_P1;SDS_P2;PMS_P1;PMS_P2;Temp;Humidity;BMP_temperature;BMP_pressure;BME280_temperature;BME280_humidity;BME280_pressure;Samples;Min_cycle;Max_cycle;Signal;HPM_P1;HPM_P2
2023/10/17 00:00:31;;;;;;;4.70;2.70;;;;;;;6.06;79.08;99415.86;107293;1257;61865;-36
2023/10/17 00:02:59;;;;;;;5.70;3.20;;;;;;;6.13;79.12;99414.58;107286;1260;60315;-36
2023/10/17 00:05:29;;;;;;;4.90;3.20;;;;;;;6.15;79.28;99416.80;107298;1261;74308;-36
2023/10/17 00:07:58;;;;;;;4.30;3.10;;;;;;;6.16;79.10;99421.61;107292;1257;68040;-36
2023/10/17 00:10:31;;;;;;;4.00;2.70;;;;;;;6.16;78.66;99426.70;107284;1260;72712;-36
2023/10/17 00:13:18;;;;;;;4.80;2.80;;;;;;;6.23;78.60;99422.85;107280;1260;61102;-36
2023/10/17 00:15:46;;;;;;;5.40;3.30;;;;;;;6.29;78.17;99422.81;107266;1255;60443;-36
2023/10/17 00:18:18;;;;;;;5.70;3.10;;;;;;;6.29;78.32;99423.86;107273;1256;73851;-36
2023/10/17 00:20:51;;;;;;;6.80;3.20;;;;;;;6.26;78.31;99422.89;107301;1257;68375;-37
2023/10/17 00:23:22;;;;;;;5.20;3.00;;;;;;;6.22;78.54;99422.61;107289;1257;72755;-37
2023/10/17 00:25:50;;;;;;;4.10;2.50;;;;;;;6.25;78.45;99418.73;107251;1260;61673;-37
2023/10/17 00:28:22;;;;;;;4.80;3.00;;;;;;;6.28;78.43;99417.78;107390;1257;60313;-37
2023/10/17 00:30:50;;;;;;;6.30;3.10;;;;;;;6.26;78.47;99414.43;107287;1255;73888;-37
2023/10/17 00:33:22;;;;;;;7.10;3.20;;;;;;;6.22;78.47;99414.38;107285;1257;66273;-37
2023/10/17 00:35:50;;;;;;;5.70;3.10;;;;;;;6.19;78.71;99417.64;107269;1261;71445;-37
2023/10/17 00:38:18;;;;;;;6.30;2.80;;;;;;;6.23;78.62;99416.95;107258;1255;60404;-37
2023/10/17 00:40:51;;;;;;;6.30;2.80;;;;;;;6.31;78.71;99414.63;107260;1256;60363;-37
2023/10/17 00:43:23;;;;;;;6.80;3.20;;;;;;;6.32;78.98;99420.23;107312;1257;72875;-37
2023/10/17 00:45:50;;;;;;;4.90;3.20;;;;;;;6.30;79.20;99418.05;107239;1260;67905;-37
2023/10/17 00:48:20;;;;;;;5.70;3.40;;;;;;;6.28;79.50;99422.89;107262;1254;71376;-37
2023/10/17 00:50:58;;;;;;;6.30;3.00;;;;;;;6.32;79.47;99423.20;107442;1257;61681;-37
2023/10/17 00:53:27;;;;;;;4.10;2.90;;;;;;;6.37;79.44;99428.31;107278;1257;60494;-37
2023/10/17 00:55:59;;;;;;;4.60;3.30;;;;;;;6.35;79.60;99430.48;107424;1256;73825;-37
2023/10/17 00:58:27;;;;;;;4.70;3.50;;;;;;;6.30;79.81;99433.73;107470;1258;67523;-37
2023/10/17 01:01:16;;;;;;;6.40;3.30;;;;;;;6.26;79.95;99433.77;107321;1257;71378;-37
2023/10/17 01:03:45;;;;;;;6.80;3.10;;;;;;;6.29;79.92;99438.17;107314;1257;61287;-37
2023/10/17 01:11:57;;;;;;;7.10;3.50;;;;;;;6.27;80.18;99461.02;107036;1257;67566;-37
2023/10/17 01:14:26;;;;;;;7.10;3.60;;;;;;;6.26;80.24;99466.66;107426;1260;73031;-36
2023/10/17 01:16:54;;;;;;;8.10;3.50;;;;;;;6.30;79.98;99465.34;107240;1257;61728;-36
2023/10/17 01:19:23;;;;;;;6.50;3.40;;;;;;;6.35;79.86;99463.72;107442;1257;60252;-36
2023/10/17 01:21:50;;;;;;;6.00;3.50;;;;;;;6.37;79.99;99466.11;107417;1255;73879;-36
2023/10/17 01:24:19;;;;;;;6.70;3.50;;;;;;;6.36;79.90;99468.15;107326;1255;66285;-36
2023/10/17 01:26:47;;;;;;;5.70;3.70;;;;;;;6.34;79.53;99467.52;107255;1261;72675;-36
2023/10/17 01:29:14;;;;;;;5.60;3.10;;;;;;;6.37;79.55;99468.80;107439;1257;61623;-36
2023/10/17 01:31:43;;;;;;;5.60;3.50;;;;;;;6.44;79.54;99470.33;107254;1258;60280;-36
2023/10/17 01:34:11;;;;;;;6.70;4.00;;;;;;;6.43;79.38;99468.17;107441;1256;72896;-36
2023/10/17 01:36:39;;;;;;;5.90;3.10;;;;;;;6.41;79.45;99472.10;107288;1255;65447;-36
2023/10/17 01:39:08;;;;;;;6.90;3.70;;;;;;;6.38;79.24;99470.13;107432;1257;71377;-36
2023/10/17 01:41:36;;;;;;;6.00;3.50;;;;;;;6.40;79.02;99471.67;107437;1257;60812;-36
2023/10/17 01:44:04;;;;;;;7.50;3.30;;;;;;;6.45;79.11;99479.16;107471;1260;60380;-36
2023/10/17 01:46:32;;;;;;;5.30;3.50;;;;;;;6.45;79.03;99480.55;107540;1257;73835;-36
2023/10/17 01:49:00;;;;;;;5.40;3.50;;;;;;;6.44;79.16;99481.42;107476;1257;67575;-37
2023/10/17 01:51:28;;;;;;;6.70;3.60;;;;;;;6.43;79.21;99483.78;107281;1260;72757;-37
2023/10/17 01:53:56;;;;;;;4.80;3.50;;;;;;;6.43;79.19;99483.71;107247;1256;61669;-37
2023/10/17 01:56:26;;;;;;;9.10;3.60;;;;;;;6.48;78.89;99489.06;107309;1257;59591;-37
2023/10/17 01:58:55;;;;;;;6.30;3.50;;;;;;;6.53;78.69;99489.16;107107;1258;72585;-37
2023/10/17 02:01:29;;;;;;;5.80;3.60;;;;;;;6.53;78.63;99489.84;107274;1257;66633;-37
2023/10/17 02:04:04;;;;;;;7.20;3.60;;;;;;;6.49;78.51;99490.91;107239;1257;72688;-37
2023/10/17 02:06:35;;;;;;;5.60;3.50;;;;;;;6.43;78.49;99487.16;107311;1260;60320;-37
2023/10/17 02:09:24;;;;;;;6.80;3.20;;;;;;;6.40;78.31;99488.35;107286;1258;60258;-37
2023/10/17 02:11:54;;;;;;;5.60;3.20;;;;;;;6.43;78.03;99498.02;107294;1257;73908;-37
2023/10/17 02:14:23;;;;;;;7.50;3.60;;;;;;;6.39;78.00;99497.80;107328;1260;67578;-37
2023/10/17 02:16:51;;;;;;;6.30;3.40;;;;;;;6.33;78.27;99501.27;107221;1258;71160;-37
2023/10/17 02:19:31;;;;;;;6.80;3.90;;;;;;;6.31;78.42;99498.94;107164;1257;60425;-37
2023/10/17 02:22:00;;;;;;;4.40;3.40;;;;;;;6.29;78.50;99505.64;107320;1260;60421;-37
2023/10/17 02:24:29;;;;;;;5.00;3.10;;;;;;;6.31;78.40;99506.10;107336;1257;73813;-37
2023/10/17 02:27:00;;;;;;;8.10;3.40;;;;;;;6.36;78.16;99506.36;107308;1257;67856;-37
2023/10/17 02:29:29;;;;;;;9.70;4.00;;;;;;;6.37;78.13;99510.96;107268;1257;71398;-37
2023/10/17 02:31:58;;;;;;;6.70;3.30;;;;;;;6.34;78.01;99516.83;107214;1257;60393;-37
2023/10/17 02:34:29;;;;;;;6.20;3.40;;;;;;;6.29;78.09;99520.13;107315;1256;60540;-37
2023/10/17 02:37:00;;;;;;;6.40;3.00;;;;;;;6.32;78.22;99520.66;107314;1257;73863;-37
2023/10/17 02:39:28;;;;;;;6.60;3.30;;;;;;;6.38;77.84;99527.76;107261;1257;67852;-37
2023/10/17 02:42:06;;;;;;;5.70;3.20;;;;;;;6.39;77.74;99523.56;107309;1260;71972;-37
2023/10/17 02:44:43;;;;;;;6.80;3.40;;;;;;;6.36;77.63;99521.08;107342;1255;61000;-37
2023/10/17 02:47:12;;;;;;;6.30;3.50;;;;;;;6.32;77.54;99526.83;107258;1256;59989;-37
2023/10/17 02:49:43;;;;;;;5.70;3.00;;;;;;;6.30;77.52;99530.37;107680;1254;73855;-37
2023/10/17 02:52:11;;;;;;;5.30;3.00;;;;;;;6.34;77.51;99529.20;107758;1253;67622;-37
2023/10/17 02:54:59;;;;;;;7.80;3.20;;;;;;;6.35;77.18;99528.23;107698;1251;72956;-37
2023/10/17 02:57:33;;;;;;;8.00;3.20;;;;;;;6.32;77.41;99529.60;107786;1251;60516;-37
2023/10/17 03:00:21;;;;;;;4.90;3.10;;;;;;;6.30;77.25;99530.09;107592;1251;60428;-37
2023/10/17 03:02:52;;;;;;;5.70;3.30;;;;;;;6.28;77.26;99538.37;107779;1251;72613;-37
2023/10/17 03:05:21;;;;;;;5.90;2.80;;;;;;;6.31;76.98;99540.27;107739;1251;67867;-37
2023/10/17 03:07:51;;;;;;;5.50;3.20;;;;;;;6.33;77.02;99535.48;107770;1251;72273;-37
2023/10/17 03:10:22;;;;;;;6.40;3.30;;;;;;;6.28;77.11;99537.13;107726;1251;60424;-37
2023/10/17 03:12:53;;;;;;;10.00;3.50;;;;;;;6.24;77.14;99542.75;107733;1251;60424;-37
2023/10/17 03:15:29;;;;;;;6.90;3.10;;;;;;;6.19;77.18;99546.08;107726;1251;73866;-37
2023/10/17 03:18:03;;;;;;;5.30;3.00;;;;;;;6.16;77.07;99545.34;107740;1251;67711;-37
2023/10/17 03:20:41;;;;;;;4.50;2.60;;;;;;;6.16;77.07;99551.45;107667;1257;72654;-37
2023/10/17 03:23:10;;;;;;;7.10;3.30;;;;;;;6.12;76.98;99549.44;107745;1251;60419;-37
2023/10/17 03:25:38;;;;;;;5.70;3.20;;;;;;;6.07;77.20;99555.55;107725;1256;60078;-37
2023/10/17 03:28:08;;;;;;;5.40;3.20;;;;;;;5.99;77.29;99558.63;107739;1251;72561;-37
2023/10/17 03:30:36;;;;;;;7.10;3.10;;;;;;;5.90;77.39;99561.33;107662;1251;67349;-37
2023/10/17 03:33:14;;;;;;;5.80;3.30;;;;;;;5.90;77.46;99569.38;107663;1251;71956;-37
2023/10/17 03:38:37;;;;;;;5.70;3.40;;;;;;;5.85;77.64;99574.84;107453;1251;60506;-36
2023/10/17 03:41:15;;;;;;;8.50;3.90;;;;;;;5.79;77.85;99580.42;107720;1251;72638;-36
2023/10/17 03:44:02;;;;;;;8.00;4.10;;;;;;;5.71;77.98;99582.95;107703;1256;67998;-36
2023/10/17 03:46:35;;;;;;;7.40;3.80;;;;;;;5.63;77.95;99583.48;107735;1251;72651;-36
2023/10/17 03:49:04;;;;;;;7.50;3.80;;;;;;;5.62;77.91;99584.73;107731;1252;60856;-36
2023/10/17 03:51:32;;;;;;;8.60;4.40;;;;;;;5.59;78.13;99584.92;107712;1251;60411;-36
2023/10/17 03:54:07;;;;;;;7.10;4.30;;;;;;;5.49;78.33;99587.79;107723;1251;73880;-36
2023/10/17 03:56:40;;;;;;;9.90;4.60;;;;;;;5.39;78.65;99590.45;107739;1251;67579;-36
2023/10/17 04:01:46;;;;;;;9.00;4.90;;;;;;;5.26;79.02;99594.85;107697;1252;60875;-36
2023/10/17 04:04:30;;;;;;;10.30;4.80;;;;;;;5.26;79.10;99596.02;107698;1255;60414;-35
2023/10/17 04:06:58;;;;;;;9.10;4.90;;;;;;;5.26;79.05;99598.49;107629;1251;177783;-36
2023/10/17 04:15:30;;;;;;;8.60;4.70;;;;;;;5.09;79.45;99605.55;106587;1266;59319;-36
2023/10/17 04:17:59;;;;;;;10.90;4.80;;;;;;;5.05;79.41;99609.05;106536;1266;72300;-36
2023/10/17 04:20:34;;;;;;;8.60;4.40;;;;;;;5.04;79.39;99615.08;106539;1271;67628;-36
2023/10/17 04:23:02;;;;;;;12.20;4.80;;;;;;;5.00;79.74;99618.35;106360;1269;228907;-37
2023/10/17 04:25:37;;;;;;;8.00;4.90;;;;;;;4.94;79.96;99620.53;106722;1264;60053;-36
2023/10/17 04:28:06;;;;;;;12.10;5.00;;;;;;;4.86;80.27;99624.80;106755;1264;60112;-36
2023/10/17 04:30:46;;;;;;;9.30;5.00;;;;;;;4.79;80.43;99629.65;106797;1264;71343;-36
2023/10/17 04:33:19;;;;;;;9.00;4.50;;;;;;;4.81;80.44;99639.16;106743;1264;67919;-36
2023/10/17 04:35:55;;;;;;;7.00;4.60;;;;;;;4.83;80.52;99642.23;106710;1264;72718;-36
2023/10/17 04:41:10;;;;;;;9.80;6.10;;;;;;;4.74;80.98;99651.35;106685;1264;60500;-36
2023/10/17 04:43:48;;;;;;;11.50;5.40;;;;;;;4.69;81.16;99652.27;106729;1264;73119;-36
2023/10/17 04:46:16;;;;;;;10.30;5.30;;;;;;;4.71;80.98;99658.27;106721;1264;67825;-36
2023/10/17 04:48:47;;;;;;;9.40;5.80;;;;;;;4.77;80.87;99663.14;106690;1264;72724;-36
2023/10/17 04:53:50;;;;;;;11.80;6.10;;;;;;;4.71;81.02;99665.78;106706;1264;59577;-36
2023/10/17 04:56:21;;;;;;;9.90;5.60;;;;;;;4.70;80.93;99672.02;106700;1264;73100;-36
2023/10/17 04:58:53;;;;;;;8.80;5.00;;;;;;;4.72;80.43;99675.04;106689;1269;67736;-36
2023/10/17 05:01:41;;;;;;;8.80;5.60;;;;;;;4.71;80.28;99676.38;107108;1256;72727;-36
2023/10/17 06:19:20;;;;;;;8.00;3.40;;;;;;;5.28;76.84;99744.55;107242;1256;71856;-36
2023/10/17 06:34:38;;;;;;;10.20;2.90;;;;;;;5.70;74.82;99760.52;107206;1257;67585;-36
2023/10/17 06:37:07;;;;;;;5.00;2.30;;;;;;;5.83;73.95;99764.64;107193;1259;71780;-37
2023/10/17 06:39:45;;;;;;;3.90;2.70;;;;;;;5.89;73.45;99768.17;107195;1259;59597;-37
2023/10/17 06:42:14;;;;;;;4.90;2.50;;;;;;;5.95;72.76;99771.48;107245;1256;59531;-37
2023/10/17 06:44:53;;;;;;;4.60;3.00;;;;;;;6.00;72.79;99768.31;107256;1256;72343;-37
2023/10/17 06:47:31;;;;;;;6.30;3.20;;;;;;;6.06;73.39;99772.90;107186;1256;67590;-37
2023/10/17 06:55:28;;;;;;;5.30;2.90;;;;;;;6.41;72.49;99772.31;107177;1257;60020;-37
2023/10/17 06:58:08;;;;;;;8.70;3.40;;;;;;;6.47;72.25;99775.78;107202;1256;71570;-37
2023/10/17 07:00:49;;;;;;;6.20;3.20;;;;;;;6.52;71.71;99784.23;107206;1256;67923;-37
2023/10/17 07:03:25;;;;;;;8.20;3.30;;;;;;;6.55;71.76;99783.52;107236;1258;71152;-37
2023/10/17 07:06:04;;;;;;;8.50;3.00;;;;;;;6.60;71.20;99788.61;107205;1257;60878;-37
2023/10/17 07:08:36;;;;;;;5.90;2.90;;;;;;;6.67;70.60;99790.07;107184;1256;60059;-37
2023/10/17 07:11:18;;;;;;;6.30;2.80;;;;;;;6.73;70.23;99789.79;107192;1256;73078;-37
2023/10/17 07:14:47;;;;;;;4.60;3.10;;;;;;;6.73;69.41;99792.64;107227;1256;67043;-37
2023/10/17 07:16:48;;;;;;;4.60;2.70;;;;;;;6.69;69.46;99794.08;107174;1256;72694;-36
2023/10/17 07:24:33;;;;;;;6.10;3.10;;;;;;;6.65;68.39;99802.15;107206;1256;73055;-37
2023/10/17 07:27:18;;;;;;;6.10;2.70;;;;;;;6.73;68.33;99800.86;107210;1261;67624;-37
2023/10/17 07:30:10;;;;;;;5.60;2.60;;;;;;;6.82;68.08;99802.93;107199;1259;71691;-37
2023/10/17 07:32:45;;;;;;;4.90;2.80;;;;;;;6.87;67.66;99807.68;107155;1256;60141;-36
2023/10/17 07:35:23;;;;;;;3.80;2.50;;;;;;;6.90;67.17;99810.43;107168;1256;59628;-37
2023/10/17 07:37:55;;;;;;;5.40;2.70;;;;;;;6.94;66.54;99810.28;107182;1262;73032;-37
2023/10/17 07:40:41;;;;;;;5.30;2.70;;;;;;;6.95;66.27;99813.04;107195;1256;66558;-37
2023/10/17 07:43:09;;;;;;;5.20;2.70;;;;;;;6.96;66.63;99818.15;107179;1256;72669;-37
2023/10/17 07:45:38;;;;;;;3.80;2.50;;;;;;;6.99;65.68;99826.27;107181;1259;59708;-37
2023/10/17 07:48:20;;;;;;;;;;;;;;;7.04;65.16;99829.64;107207;1256;60046;-37
2023/10/17 07:50:50;;;;;;;5.00;2.90;;;;;;;7.08;65.05;99833.02;107176;1257;72991;-37
2023/10/17 07:53:21;;;;;;;6.50;2.80;;;;;;;7.07;64.82;99834.67;107265;1257;66330;-37
2023/10/17 07:55:52;;;;;;;6.40;2.80;;;;;;;7.04;63.90;99837.19;107192;1256;72671;-37
2023/10/17 08:04:29;;;;;;;5.60;3.00;;;;;;;7.15;63.71;99829.29;106711;1264;71634;-37
2023/10/17 08:06:59;;;;;;;5.00;2.90;;;;;;;7.21;63.95;99833.46;107091;1258;66292;-37
2023/10/17 08:09:36;;;;;;;5.00;3.30;;;;;;;7.26;63.76;99833.82;107157;1258;71409;-37
2023/10/17 08:12:09;;;;;;;4.10;2.50;;;;;;;7.33;63.85;99832.58;107149;1256;60888;-37
2023/10/17 08:14:45;;;;;;;4.90;2.90;;;;;;;7.44;62.71;99834.38;107210;1256;60068;-37
2023/10/17 08:17:14;;;;;;;5.50;2.50;;;;;;;7.44;62.51;99838.06;107204;1256;71594;-37
2023/10/17 08:22:54;;;;;;;5.50;3.00;;;;;;;7.42;62.37;99834.54;107183;1259;71714;-37
2023/10/17 08:25:25;;;;;;;6.70;3.00;;;;;;;7.44;62.30;99837.63;107180;1256;59396;-37
2023/10/17 08:27:54;;;;;;;4.80;2.60;;;;;;;7.46;62.43;99833.95;107193;1256;59997;-37
2023/10/17 08:30:27;;;;;;;5.80;2.90;;;;;;;7.47;61.73;99841.66;107189;1256;73038;-37
2023/10/17 08:33:11;;;;;;;4.30;2.30;;;;;;;7.50;61.49;99838.86;107175;1256;65823;-37
2023/10/17 08:35:40;;;;;;;5.50;2.80;;;;;;;7.57;61.40;99835.41;107171;1259;72688;-37
2023/10/17 08:38:11;;;;;;;4.90;2.80;;;;;;;7.64;60.34;99829.90;107179;1257;60467;-37
2023/10/17 08:43:14;;;;;;;4.60;2.70;;;;;;;7.76;59.30;99838.07;107186;1256;73969;-37
2023/10/17 08:45:46;;;;;;;5.10;2.50;;;;;;;7.86;58.53;99836.20;107197;1256;67595;-37
2023/10/17 08:48:14;;;;;;;3.80;2.40;;;;;;;7.95;57.64;99837.94;107200;1256;71428;-37
2023/10/17 08:50:43;;;;;;;6.40;2.30;;;;;;;8.01;57.82;99836.75;107186;1259;60444;-37
2023/10/17 08:53:20;;;;;;;5.50;2.60;;;;;;;8.07;57.90;99839.35;107215;1255;60329;-37
2023/10/17 08:55:51;;;;;;;6.10;2.50;;;;;;;8.14;57.68;99834.30;107159;1256;73876;-37
2023/10/17 08:58:32;;;;;;;6.50;2.70;;;;;;;8.20;57.38;99835.83;107214;1257;67723;-36
2023/10/17 09:01:14;;;;;;;6.20;2.60;;;;;;;8.26;57.57;99833.25;107143;1256;72809;-37
2023/10/17 09:03:46;;;;;;;4.50;2.30;;;;;;;8.37;57.32;99832.20;107156;1256;59533;-37
2023/10/17 09:11:14;;;;;;;4.80;2.40;;;;;;;8.58;54.42;99832.60;107125;1256;68390;-37
2023/10/17 09:16:15;;;;;;;5.00;2.20;;;;;;;8.63;53.69;99832.70;107159;1256;60423;-37
2023/10/17 09:18:48;;;;;;;4.60;2.20;;;;;;;8.65;53.82;99834.88;107154;1256;60310;-37
2023/10/17 09:21:16;;;;;;;5.60;2.20;;;;;;;8.69;54.22;99834.01;107178;1256;74014;-37
2023/10/17 09:23:45;;;;;;;4.50;2.40;;;;;;;8.78;54.38;99833.44;107222;1262;68028;-37
2023/10/17 09:26:19;;;;;;;5.00;2.30;;;;;;;8.87;54.62;99832.83;107159;1259;71524;-36
2023/10/17 09:28:48;;;;;;;7.20;2.50;;;;;;;8.97;54.84;99829.52;107153;1262;60505;-37
2023/10/17 09:31:17;;;;;;;3.90;2.30;;;;;;;9.08;54.74;99826.55;107200;1256;60333;-37
2023/10/17 09:33:45;;;;;;;6.70;2.80;;;;;;;9.19;53.07;99829.90;107158;1256;73083;-37
2023/10/17 09:36:17;;;;;;;5.30;1.90;;;;;;;9.24;52.31;99828.38;107213;1256;67599;-37
2023/10/17 09:38:46;;;;;;;4.90;2.40;;;;;;;9.29;52.92;99823.41;107151;1256;72735;-37
2023/10/17 09:41:18;;;;;;;5.00;2.50;;;;;;;9.40;53.03;99822.00;107211;1256;60432;-37
2023/10/17 09:43:49;;;;;;;4.50;2.20;;;;;;;9.52;52.19;99814.94;107139;1257;60801;-37
2023/10/17 09:46:25;;;;;;;4.50;2.50;;;;;;;9.59;51.46;99814.85;107197;1256;72667;-37
2023/10/17 09:48:53;;;;;;;6.60;2.50;;;;;;;9.64;52.09;99813.83;107148;1256;67596;-37
2023/10/17 09:51:26;;;;;;;5.10;2.00;;;;;;;9.74;51.58;99811.95;107181;1258;71474;-37
2023/10/17 09:53:55;;;;;;;6.10;2.60;;;;;;;9.85;51.67;99812.52;107141;1256;60485;-37
2023/10/17 09:56:27;;;;;;;4.30;2.00;;;;;;;9.91;51.13;99806.81;107252;1256;60315;-37
2023/10/17 09:58:57;;;;;;;4.50;2.20;;;;;;;9.94;51.04;99802.32;107174;1256;73816;-37
2023/10/17 10:01:25;;;;;;;5.70;2.80;;;;;;;10.00;49.54;99810.09;107207;1256;67551;-37
2023/10/17 10:03:56;;;;;;;4.10;2.30;;;;;;;10.06;50.18;99806.84;107055;1259;72667;-37
2023/10/17 10:06:36;;;;;;;4.50;2.10;;;;;;;10.15;49.75;99803.30;107123;1258;60419;-36
2023/10/17 10:09:13;;;;;;;4.70;2.20;;;;;;;10.22;47.81;99800.96;107165;1256;60309;-37
2023/10/17 10:11:54;;;;;;;3.00;1.50;;;;;;;10.28;47.71;99800.27;107188;1256;73797;-37
2023/10/17 10:14:33;;;;;;;4.30;1.70;;;;;;;10.39;46.86;99805.39;107196;1256;67586;-37
2023/10/17 10:17:04;;;;;;;4.50;1.70;;;;;;;10.45;44.60;99804.70;107152;1258;72657;-37
2023/10/17 10:19:41;;;;;;;4.10;2.00;;;;;;;10.43;44.64;99804.17;107130;1256;60616;-37
2023/10/17 10:22:13;;;;;;;4.30;1.90;;;;;;;10.41;45.93;99804.20;107181;1256;60484;-37
2023/10/17 10:24:46;;;;;;;3.20;1.60;;;;;;;10.48;44.75;99805.70;107179;1262;73873;-37
2023/10/17 10:27:17;;;;;;;3.20;1.50;;;;;;;10.55;43.74;99805.94;107135;1257;67600;-36
2023/10/17 10:29:52;;;;;;;;;;;;;;;10.56;44.48;99805.97;107208;1256;73884;-37
2023/10/17 10:32:30;;;;;;;3.90;1.70;;;;;;;10.60;44.08;99802.35;107127;1257;59356;-37
2023/10/17 10:34:58;;;;;;;4.60;2.10;;;;;;;10.67;44.65;99802.55;107178;1256;61029;-37
2023/10/17 10:37:26;;;;;;;2.10;1.40;;;;;;;10.76;44.97;99803.02;107085;1256;73856;-37
2023/10/17 10:40:16;;;;;;;4.40;1.60;;;;;;;10.81;43.96;99803.75;107135;1256;67599;-37
2023/10/17 10:42:47;;;;;;;3.50;1.70;;;;;;;10.78;44.45;99808.35;107231;1257;73508;-37
2023/10/17 10:45:47;;;;;;;4.20;1.60;;;;;;;10.77;45.15;99803.19;107141;1256;60306;-36
2023/10/17 10:48:17;;;;;;;3.30;1.70;;;;;;;10.83;44.88;99794.04;107158;1256;60589;-37
2023/10/17 10:50:46;;;;;;;1.70;1.10;;;;;;;10.90;42.28;99797.23;107209;1256;72853;-37
2023/10/17 10:53:19;;;;;;;2.20;1.40;;;;;;;10.92;42.49;99789.81;107165;1255;68215;-37
2023/10/17 10:56:09;;;;;;;2.60;1.30;;;;;;;10.96;42.67;99789.15;107116;1259;71644;-37
2023/10/17 10:58:47;;;;;;;4.30;1.60;;;;;;;11.02;43.04;99792.00;107157;1256;62187;-37
2023/10/17 11:01:16;;;;;;;3.20;1.60;;;;;;;11.07;42.97;99788.95;107159;1256;60264;-37
2023/10/17 11:03:46;;;;;;;2.90;1.40;;;;;;;11.05;43.32;99790.61;107176;1257;73148;-37
2023/10/17 11:06:15;;;;;;;2.00;1.20;;;;;;;10.90;42.01;99789.41;107124;1262;67538;-37
2023/10/17 11:08:45;;;;;;;4.20;1.50;;;;;;;10.69;42.25;99790.36;107136;1256;72813;-37
2023/10/17 11:11:16;;;;;;;3.00;1.60;;;;;;;10.50;42.85;99791.11;107118;1262;60534;-37
2023/10/17 11:13:48;;;;;;;3.30;1.60;;;;;;;10.38;43.10;99786.84;107210;1256;60472;-37
2023/10/17 11:16:20;;;;;;;3.00;1.50;;;;;;;10.36;43.70;99787.33;107136;1256;72602;-37
2023/10/17 11:18:48;;;;;;;3.10;1.60;;;;;;;10.46;42.83;99785.73;107151;1262;67617;-37
2023/10/17 11:21:21;;;;;;;4.20;1.50;;;;;;;10.59;43.15;99791.33;107149;1259;71469;-36
2023/10/17 11:24:09;;;;;;;2.70;1.10;;;;;;;10.78;42.30;99789.65;107181;1262;60435;-37
2023/10/17 11:26:39;;;;;;;1.80;1.20;;;;;;;11.00;42.35;99786.45;107102;1262;60749;-36
2023/10/17 11:29:07;;;;;;;3.30;1.70;;;;;;;11.10;42.61;99787.48;107156;1257;72978;-37
2023/10/17 11:31:35;;;;;;;2.80;1.30;;;;;;;11.13;42.41;99783.42;107062;1256;66429;-37
2023/10/17 11:34:12;;;;;;;2.00;1.50;;;;;;;11.10;41.62;99782.96;107121;1259;72657;-37
2023/10/17 11:36:47;;;;;;;2.40;1.20;;;;;;;11.01;42.00;99788.29;107144;1259;60936;-37
2023/10/17 11:39:15;;;;;;;2.70;1.10;;;;;;;10.93;42.73;99784.02;107149;1256;60658;-38
2023/10/17 11:41:53;;;;;;;3.20;1.20;;;;;;;10.86;42.97;99783.42;107124;1256;73847;-37
2023/10/17 11:44:24;;;;;;;5.30;1.30;;;;;;;10.71;42.53;99785.00;107107;1262;67610;-38
2023/10/17 11:47:02;;;;;;;1.70;1.30;;;;;;;10.52;42.89;99781.09;107148;1258;71760;-37
2023/10/17 11:49:31;;;;;;;5.30;1.50;;;;;;;10.46;43.25;99782.27;107135;1258;60549;-37
2023/10/17 11:52:00;;;;;;;4.30;1.40;;;;;;;10.65;42.32;99776.85;107178;1256;60959;-38
2023/10/17 11:54:29;;;;;;;2.70;1.10;;;;;;;10.90;42.01;99774.59;107199;1261;73130;-37
2023/10/17 11:57:09;;;;;;;3.60;1.20;;;;;;;11.13;41.95;99778.70;107237;1260;67657;-37
2023/10/17 11:59:37;;;;;;;2.40;1.30;;;;;;;11.31;41.21;99779.58;107212;1256;74904;-37
2023/10/17 12:02:05;;;;;;;3.00;1.20;;;;;;;11.54;41.36;99776.98;107210;1258;60422;-38
2023/10/17 12:04:33;;;;;;;1.50;1.10;;;;;;;11.78;40.64;99776.98;107226;1256;60395;-38
2023/10/17 12:07:02;;;;;;;1.90;1.10;;;;;;;12.02;40.37;99774.83;107202;1256;73902;-38
2023/10/17 12:09:31;;;;;;;2.30;1.10;;;;;;;12.18;39.38;99779.33;107209;1257;70084;-35
2023/10/17 12:12:02;;;;;;;1.70;1.10;;;;;;;12.38;39.45;99773.86;107297;1260;71893;-35
2023/10/17 12:14:30;;;;;;;3.50;1.20;;;;;;;12.57;39.61;99774.29;107208;1257;60569;-35
2023/10/17 12:17:00;;;;;;;5.20;1.40;;;;;;;12.80;39.19;99775.98;107123;1257;62399;-36
2023/10/17 12:19:28;;;;;;;11.20;2.60;;;;;;;13.11;38.39;99774.48;107265;1258;72879;-36
2023/10/17 12:22:00;;;;;;;3.30;1.20;;;;;;;13.40;37.64;99768.24;107116;1257;67214;-36
2023/10/17 12:24:28;;;;;;;2.90;1.30;;;;;;;13.69;37.89;99759.98;107058;1258;71693;-36
2023/10/17 12:26:58;;;;;;;1.90;1.20;;;;;;;14.01;37.89;99763.64;107105;1259;62382;-37
2023/10/17 12:29:26;;;;;;;4.70;1.70;;;;;;;14.32;37.37;99764.38;107059;1262;61062;-36
2023/10/17 12:31:53;;;;;;;2.10;1.20;;;;;;;14.61;36.88;99762.17;107053;1258;73923;-36
2023/10/17 12:34:22;;;;;;;2.10;1.10;;;;;;;14.98;36.17;99763.17;107045;1257;69158;-36
2023/10/17 12:36:50;;;;;;;3.70;1.60;;;;;;;15.33;35.68;99764.05;107014;1259;71415;-36
2023/10/17 12:39:17;;;;;;;5.20;1.70;;;;;;;15.55;35.17;99767.32;107045;1258;60408;-36
2023/10/17 12:41:46;;;;;;;2.40;1.50;;;;;;;15.82;35.09;99765.11;107034;1257;60144;-36
2023/10/17 12:44:13;;;;;;;2.00;1.20;;;;;;;16.13;34.31;99768.34;107102;1259;75125;-36
2023/10/17 12:46:41;;;;;;;2.30;1.10;;;;;;;16.39;32.89;99765.36;107059;1260;66892;-37
2023/10/17 12:49:12;;;;;;;4.00;1.60;;;;;;;16.61;32.62;99768.77;107054;1259;72695;-37
2023/10/17 12:51:41;;;;;;;1.80;1.20;;;;;;;16.60;32.51;99769.17;107071;1259;60298;-37
2023/10/17 12:54:09;;;;;;;4.30;1.40;;;;;;;16.52;31.94;99768.58;107117;1259;60298;-36
2023/10/17 12:56:36;;;;;;;2.00;1.20;;;;;;;16.45;32.11;99763.88;107031;1257;76077;-37
2023/10/17 12:59:05;;;;;;;2.20;1.30;;;;;;;16.24;32.32;99767.12;107026;1259;67797;-37
2023/10/17 13:01:32;;;;;;;1.70;1.00;;;;;;;15.74;32.63;99770.32;107004;1259;72753;-36
2023/10/17 13:04:00;;;;;;;2.10;1.20;;;;;;;15.15;33.63;99776.41;107063;1264;60073;-35
2023/10/17 13:06:28;;;;;;;1.70;1.00;;;;;;;14.55;34.03;99773.02;106987;1258;60371;-36
2023/10/17 13:08:59;;;;;;;1.50;1.20;;;;;;;13.90;35.07;99773.32;107015;1258;73918;-35
2023/10/17 13:11:27;;;;;;;2.00;1.30;;;;;;;13.33;35.84;99777.94;107028;1257;67574;-35
2023/10/17 13:13:55;;;;;;;3.60;1.60;;;;;;;12.87;36.78;99780.46;107061;1258;71455;-35
2023/10/17 13:16:26;;;;;;;3.10;1.80;;;;;;;12.46;37.41;99779.14;107023;1259;60348;-36
2023/10/17 13:18:56;;;;;;;2.80;1.50;;;;;;;12.10;38.36;99778.55;106266;1257;1003055;-35
2023/10/17 13:21:25;;;;;;;2.70;1.70;;;;;;;11.79;39.10;99780.88;107031;1257;73817;-36
2023/10/17 13:23:53;;;;;;;4.40;2.00;;;;;;;11.52;39.48;99782.06;107048;1258;68389;-36
2023/10/17 13:26:22;;;;;;;3.20;1.60;;;;;;;11.27;39.93;99788.58;107024;1259;72788;-35
2023/10/17 13:28:50;;;;;;;3.70;1.50;;;;;;;11.09;40.68;99790.93;107027;1259;60254;-36
2023/10/17 13:31:18;;;;;;;3.20;1.40;;;;;;;10.94;41.10;99787.02;107062;1259;60179;-36
2023/10/17 13:33:49;;;;;;;2.40;1.60;;;;;;;10.85;40.65;99787.50;107131;1257;73140;-36
2023/10/17 13:36:17;;;;;;;2.70;1.50;;;;;;;10.81;41.34;99785.46;107055;1257;67571;-36
2023/10/17 13:38:44;;;;;;;3.20;1.50;;;;;;;10.82;41.45;99782.95;106991;1259;73627;-35
2023/10/17 13:41:15;;;;;;;2.20;1.20;;;;;;;10.90;41.62;99783.73;107021;1259;60443;-35
2023/10/17 13:43:43;;;;;;;2.30;1.40;;;;;;;11.11;41.68;99782.77;107048;1258;60411;-35
2023/10/17 13:46:12;;;;;;;2.10;1.20;;;;;;;11.37;41.81;99779.86;107022;1259;73968;-35
2023/10/17 13:48:48;;;;;;;2.00;1.10;;;;;;;11.57;40.81;99780.85;107047;1257;65735;-35
2023/10/17 13:51:17;;;;;;;1.80;1.30;;;;;;;11.77;40.33;99779.83;107114;1259;72668;-36
2023/10/17 13:53:45;;;;;;;2.40;1.50;;;;;;;12.12;39.55;99784.41;107051;1259;60079;-36
2023/10/17 13:56:13;;;;;;;2.50;1.30;;;;;;;12.60;38.82;99784.20;107013;1259;60213;-36
2023/10/17 13:58:41;;;;;;;2.00;1.20;;;;;;;13.09;38.11;99780.27;107045;1257;73868;-35
2023/10/17 14:03:56;;;;;;;2.70;1.40;;;;;;;13.94;35.24;99769.39;106996;1263;72665;-36
2023/10/17 14:06:27;;;;;;;2.30;1.60;;;;;;;14.31;34.86;99770.52;107037;1259;60410;-36
2023/10/17 14:08:55;;;;;;;4.90;1.50;;;;;;;14.71;34.58;99771.23;107026;1259;60352;-35
2023/10/17 14:11:24;;;;;;;2.50;1.40;;;;;;;15.14;34.00;99768.54;107049;1264;73979;-35
2023/10/17 14:13:52;;;;;;;2.20;1.40;;;;;;;15.28;33.61;99763.64;107074;1259;68979;-35
2023/10/17 14:16:23;;;;;;;1.30;1.00;;;;;;;15.05;33.44;99768.06;107051;1258;71170;-35